WetterOnline ( https://www.wetteronline.de )

Wetter aktuell Neuruppin

Aktuelles Wetter: Neuruppin - Alt Ruppin (50m)

6-stündlich | Neueste Meldungen
Ortszeit Temperatur Wetter
Mo, 16.05. 20:00 21.1° C bedeckt
Mo, 16.05. 14:00 23.1° C leicht bewölkt
Mo, 16.05. 8:00 13.4° C leicht bewölkt
Mo, 16.05. 2:00 9.3° C leicht bewölkt
So, 15.05. 20:00 19.7° C wolkenlos
So, 15.05. 14:00 19.5° C wolkenlos
So, 15.05. 8:00 10.6° C wolkenlos
So, 15.05. 2:00 7.1° C wolkenlos
Ortszeit Temperatur Wetter
Mo, 16.05. 21:30 18.9° C bedeckt
Mo, 16.05. 21:20 18.9° C bedeckt
Mo, 16.05. 21:10 19.2° C bedeckt
Mo, 16.05. 21:00 19.6° C wolkig
Mo, 16.05. 20:50 19.6° C wolkig
Mo, 16.05. 20:40 19.8° C bedeckt
Mo, 16.05. 20:30 20.2° C bedeckt
Mo, 16.05. 20:00 21.1° C bedeckt
Mo, 16.05. 19:30 22.1° C bedeckt
Mo, 16.05. 19:00 22.8° C bedeckt
Mo, 16.05. 18:30 23.2° C bedeckt
Ortszeit Relative Feuchte Sichtweite
Mo, 16.05. 20:00 44% 35 km
Mo, 16.05. 14:00 35% 35 km
Mo, 16.05. 8:00 62% 26 km
Mo, 16.05. 2:00 87% 45 km
So, 15.05. 20:00 38% 55 km
So, 15.05. 14:00 39% 40 km
So, 15.05. 8:00 75% 35 km
So, 15.05. 2:00 94% 30 km
Ortszeit Relative Feuchte Sichtweite
Mo, 16.05. 21:30 49% 40 km
Mo, 16.05. 21:20 49% -
Mo, 16.05. 21:10 48% -
Mo, 16.05. 21:00 48% 35 km
Mo, 16.05. 20:50 48% -
Mo, 16.05. 20:40 48% -
Mo, 16.05. 20:30 48% 35 km
Mo, 16.05. 20:00 44% 35 km
Mo, 16.05. 19:30 38% 45 km
Mo, 16.05. 19:00 36% 45 km
Mo, 16.05. 18:30 34% 50 km
Ortszeit Niederschlagsmenge Niederschlagsart
Mo, 16.05. 20:00 0.0 l/m2 in 12 Std. -
Mo, 16.05. 14:00 0.0 l/m2 in 6 Std. -
Mo, 16.05. 8:00 0.0 l/m2 in 12 Std. -
Mo, 16.05. 2:00 0.0 l/m2 in 6 Std. -
So, 15.05. 20:00 0.0 l/m2 in 12 Std. -
So, 15.05. 14:00 0.0 l/m2 in 6 Std. -
So, 15.05. 8:00 0.0 l/m2 in 12 Std. -
So, 15.05. 2:00 0.0 l/m2 in 6 Std. -
Ortszeit Niederschlagsmenge Niederschlagsart
Mo, 16.05. 21:30 0.0 l/m2 in 1 Std. -
Mo, 16.05. 21:20 keine Meldung -
Mo, 16.05. 21:10 keine Meldung -
Mo, 16.05. 21:00 0.0 l/m2 in 1 Std. -
Mo, 16.05. 20:50 keine Meldung -
Mo, 16.05. 20:40 keine Meldung -
Mo, 16.05. 20:30 0.0 l/m2 in 1 Std. -
Mo, 16.05. 20:00 0.0 l/m2 in 1 Std. -
Mo, 16.05. 19:30 0.0 l/m2 in 1 Std. -
Mo, 16.05. 19:00 0.0 l/m2 in 1 Std. -
Mo, 16.05. 18:30 0.0 l/m2 in 1 Std. -
Ortszeit Stärke Spitze Richtung
km/h Bft. km/h Grad Sektor
Mo, 16.05. 20:00 11 2 32 60° NO
Mo, 16.05. 14:00 11 2 29 60° NO
Mo, 16.05. 8:00 11 2 18 90° O
Mo, 16.05. 2:00 4 1 18 50° NO
So, 15.05. 20:00 7 2 18 30° NO
So, 15.05. 14:00 6 1 20 250° W
So, 15.05. 8:00 7 2 11 280° W
So, 15.05. 2:00 4 1 25 250° W
Ortszeit Stärke Spitze Richtung
km/h Bft. km/h Grad Sektor
Mo, 16.05. 21:30 11 2 25 70° O
Mo, 16.05. 21:20 11 2 - 70° O
Mo, 16.05. 21:10 11 2 - 70° O
Mo, 16.05. 21:00 13 3 28 60° NO
Mo, 16.05. 20:50 13 3 - 60° NO
Mo, 16.05. 20:40 13 3 - 60° NO
Mo, 16.05. 20:30 11 2 25 60° NO
Mo, 16.05. 20:00 11 2 29 60° NO
Mo, 16.05. 19:30 7 2 18 60° NO
Mo, 16.05. 19:00 7 2 25 70° O
Mo, 16.05. 18:30 13 3 24 90° O
Ortszeit Untergrenze Bedeckung Gattung
total tief tief mittel hoch
Mo, 16.05. 20:00 4800 m 8/8 8/8 - - -
Mo, 16.05. 14:00 6000 m 3/8 3/8 - - -
Mo, 16.05. 8:00 9000 m 6/8 0/8 - - -
Mo, 16.05. 2:00 10500 m 5/8 0/8 - - -
So, 15.05. 20:00 - 0/8 0/8 - - -
So, 15.05. 14:00 - 0/8 0/8 - - -
So, 15.05. 8:00 - 0/8 0/8 - - -
So, 15.05. 2:00 - 0/8 0/8 - - -
Ortszeit Bedeckungsgrad in Achtel und Wolkenuntergrenze
Mo, 16.05. 21:30 8(4200m) 8(7800m)
Mo, 16.05. 21:20 8(4200m) 8(7800m)
Mo, 16.05. 21:10 8
Mo, 16.05. 21:00 2(2400m) 8(4500m) 8(7500m)
Mo, 16.05. 20:50 2(2400m) 8(4500m) 8(7500m)
Mo, 16.05. 20:40 8
Mo, 16.05. 20:30 8(4500m)
Mo, 16.05. 20:00 8(4800m)
Mo, 16.05. 19:30 8(5100m)
Mo, 16.05. 19:00 8(5400m)
Mo, 16.05. 18:30 6(5700m) 8(6300m) 8(7500m)
Ortszeit Luftdruck NN (hPa) Tendenz (hPa in 3 Std.)
Mo, 16.05. 20:00 1016 - 0,4
Mo, 16.05. 14:00 1019 - 1,1
Mo, 16.05. 8:00 1020 - 0,4
Mo, 16.05. 2:00 1022 + 0,6
So, 15.05. 20:00 1020 - 0,7
So, 15.05. 14:00 1022 - 0,9
So, 15.05. 8:00 1023 + 1,3
So, 15.05. 2:00 1022 + 0,8
Ortszeit Luftdruck NN (hPa) Tendenz (hPa in 3 Std.)
Mo, 16.05. 21:30 1017 + 0,9
Mo, 16.05. 21:20 1017 keine Meldung
Mo, 16.05. 21:10 1017 keine Meldung
Mo, 16.05. 21:00 1017 + 0,3
Mo, 16.05. 20:50 1017 keine Meldung
Mo, 16.05. 20:40 1017 keine Meldung
Mo, 16.05. 20:30 1017 - 0,1
Mo, 16.05. 20:00 1016 - 0,4
Mo, 16.05. 19:30 1016 - 0,9
Mo, 16.05. 19:00 1016 - 1,2
Mo, 16.05. 18:30 1016 - 1,3
Ortszeit Schneehöhe (cm)
Mo, 16.05. 20:00 0
Mo, 16.05. 14:00 0
Mo, 16.05. 8:00 0
Mo, 16.05. 2:00 0
So, 15.05. 20:00 0
So, 15.05. 14:00 0
So, 15.05. 8:00 0
So, 15.05. 2:00 0
Ortszeit Schneehöhe (cm)
Mo, 16.05. 21:30 0
Mo, 16.05. 21:20 0
Mo, 16.05. 21:10 0
Mo, 16.05. 21:00 0
Mo, 16.05. 20:50 0
Mo, 16.05. 20:40 0
Mo, 16.05. 20:30 0
Mo, 16.05. 20:00 0
Mo, 16.05. 19:30 0
Mo, 16.05. 19:00 0
Mo, 16.05. 18:30 0
Link zu dieser Seite / Seite empfehlen

Das Wetter in ...